Wolke Sonne

Wetter Ammerndorf

Gehe zu: Roßtal

Tageswerte vom Mittwoch, 02.03.2022

Optionen

Tag:
Erweitert:

Alle Werte vom Mittwoch, 02.03.2022

Einen Moment bitte, die Daten werden aufbereitet...

UhrzeitTemperaturBoden 10cmBoden 20cmFeuchteLuftdruckNiederschlagEvapotranspirationWindWindböenWindrichtungSolarstrahlungUV-IndexSonne?Uhrzeit
Diagramm IconDiagramm IconDiagramm IconDiagramm IconDiagramm IconDiagramm IconDiagramm IconDiagramm IconDiagramm IconDiagramm IconDiagramm IconDiagramm IconDiagramm Icon
00:00-4,9 °C 2,8 °C 3,3 °C 83 % 1031,4 hPa 0,0 mm - 0,0 km/h 0,0 km/h S 0,0 W/qm 0,0 nein 00:00
00:05-4,9 °C 2,8 °C 3,3 °C 84 % 1031,4 hPa 0,0 mm 0,0 mm 0,0 km/h 0,0 km/h S 0,0 W/qm 0,0 nein 00:05
00:10-4,9 °C 2,8 °C 3,3 °C 84 % 1031,2 hPa 0,0 mm 0,0 mm 0,0 km/h 0,0 km/h S 0,0 W/qm 0,0 nein 00:10
00:15-5,2 °C 2,8 °C 3,3 °C 84 % 1031,2 hPa 0,0 mm - 0,0 km/h 0,0 km/h S 0,0 W/qm 0,0 nein 00:15
00:20-5,2 °C 2,8 °C 3,3 °C 84 % 1031,2 hPa 0,0 mm - 0,0 km/h 0,0 km/h S 0,0 W/qm 0,0 nein 00:20
00:25-5,1 °C 2,8 °C 3,3 °C 84 % 1031,0 hPa 0,0 mm - 0,0 km/h 0,0 km/h S 0,0 W/qm 0,0 nein 00:25
00:30-5,1 °C 2,8 °C 3,3 °C 84 % 1031,0 hPa 0,0 mm - 0,0 km/h 0,0 km/h S 0,0 W/qm 0,0 nein 00:30
00:35-5,2 °C 2,8 °C 3,3 °C 84 % 1030,9 hPa 0,0 mm - 0,0 km/h 0,0 km/h S 0,0 W/qm 0,0 nein 00:35
00:40-5,1 °C 2,8 °C 3,3 °C 85 % 1031,0 hPa 0,0 mm - 0,0 km/h 0,0 km/h S 0,0 W/qm 0,0 nein 00:40
00:45-5,2 °C 2,8 °C 3,3 °C 84 % 1031,1 hPa 0,0 mm - 0,0 km/h 0,0 km/h S 0,0 W/qm 0,0 nein 00:45
00:50-5,2 °C 2,8 °C 3,3 °C 84 % 1031,1 hPa 0,0 mm - 0,0 km/h 0,0 km/h S 0,0 W/qm 0,0 nein 00:50
00:55-5,3 °C 2,8 °C 3,3 °C 85 % 1031,1 hPa 0,0 mm - 0,0 km/h 0,0 km/h S 0,0 W/qm 0,0 nein 00:55
01:00-5,2 °C 2,8 °C 3,3 °C 85 % 1031,1 hPa 0,0 mm - 0,0 km/h 0,0 km/h S 0,0 W/qm 0,0 nein 01:00
01:05-5,4 °C 2,8 °C 3,3 °C 84 % 1031,0 hPa 0,0 mm 0,0 mm 0,0 km/h 0,0 km/h S 0,0 W/qm 0,0 nein 01:05
01:10-5,5 °C 2,2 °C 3,3 °C 84 % 1030,9 hPa 0,0 mm 0,0 mm 0,0 km/h 0,0 km/h S 0,0 W/qm 0,0 nein 01:10
01:15-5,5 °C 2,2 °C 3,3 °C 85 % 1030,9 hPa 0,0 mm - 0,0 km/h 0,0 km/h SW 0,0 W/qm 0,0 nein 01:15
01:20-5,4 °C 2,2 °C 3,3 °C 85 % 1031,0 hPa 0,0 mm - 0,0 km/h 3,2 km/h SW 0,0 W/qm 0,0 nein 01:20
01:25-5,5 °C 2,2 °C 3,3 °C 85 % 1030,9 hPa 0,0 mm - 0,0 km/h 4,7 km/h SW 0,0 W/qm 0,0 nein 01:25
01:30-5,5 °C 2,2 °C 3,3 °C 85 % 1030,9 hPa 0,0 mm - 0,0 km/h 4,7 km/h SW 0,0 W/qm 0,0 nein 01:30
01:35-5,5 °C 2,2 °C 3,3 °C 85 % 1030,8 hPa 0,0 mm - 0,0 km/h 1,4 km/h SW 0,0 W/qm 0,0 nein 01:35
01:40-5,6 °C 2,2 °C 3,3 °C 85 % 1030,7 hPa 0,0 mm - 0,0 km/h 0,0 km/h SW 0,0 W/qm 0,0 nein 01:40
01:45-5,7 °C 2,2 °C 3,3 °C 85 % 1030,6 hPa 0,0 mm - 0,0 km/h 0,0 km/h SW 0,0 W/qm 0,0 nein 01:45
01:50-5,6 °C 2,2 °C 3,3 °C 85 % 1030,5 hPa 0,0 mm - 0,0 km/h 0,0 km/h SW 0,0 W/qm 0,0 nein 01:50
01:55-5,7 °C 2,2 °C 3,3 °C 85 % 1030,4 hPa 0,0 mm - 0,0 km/h 0,0 km/h SW 0,0 W/qm 0,0 nein 01:55
UhrzeitTemperaturBoden 10cmBoden 20cmFeuchteLuftdruckNiederschlagEvapotranspirationWindWindböenWindrichtungSolarstrahlungUV-IndexSonne?Uhrzeit
02:00-5,7 °C 2,2 °C 3,3 °C 86 % 1030,4 hPa 0,0 mm - 0,0 km/h 0,0 km/h SW 0,0 W/qm 0,0 nein 02:00
02:05-5,8 °C 2,2 °C 3,3 °C 86 % 1030,4 hPa 0,0 mm 0,0 mm 0,0 km/h 0,0 km/h SW 0,0 W/qm 0,0 nein 02:05
02:10-5,9 °C 2,2 °C 3,3 °C 86 % 1030,5 hPa 0,0 mm 0,0 mm 0,0 km/h 0,0 km/h SW 0,0 W/qm 0,0 nein 02:10
02:15-5,8 °C 2,2 °C 3,3 °C 86 % 1030,5 hPa 0,0 mm - 0,0 km/h 0,0 km/h SW 0,0 W/qm 0,0 nein 02:15
02:20-5,8 °C 2,2 °C 3,3 °C 86 % 1030,6 hPa 0,0 mm - 0,0 km/h 0,0 km/h SW 0,0 W/qm 0,0 nein 02:20
02:25-5,8 °C 2,2 °C 3,3 °C 86 % 1030,6 hPa 0,0 mm - 0,0 km/h 0,0 km/h SW 0,0 W/qm 0,0 nein 02:25
02:30-5,8 °C 2,2 °C 3,3 °C 87 % 1030,5 hPa 0,0 mm - 0,0 km/h 0,0 km/h SW 0,0 W/qm 0,0 nein 02:30
02:35-5,9 °C 2,2 °C 3,3 °C 87 % 1030,5 hPa 0,0 mm - 0,0 km/h 0,0 km/h SW 0,0 W/qm 0,0 nein 02:35
02:40-6,0 °C 2,2 °C 3,3 °C 87 % 1030,4 hPa 0,0 mm - 0,0 km/h 0,0 km/h SW 0,0 W/qm 0,0 nein 02:40
02:45-6,1 °C 2,2 °C 3,3 °C 86 % 1030,3 hPa 0,0 mm - 0,0 km/h 0,0 km/h SW 0,0 W/qm 0,0 nein 02:45
02:50-6,2 °C 2,2 °C 3,3 °C 86 % 1030,1 hPa 0,0 mm - 0,0 km/h 0,0 km/h SW 0,0 W/qm 0,0 nein 02:50
02:55-6,0 °C 2,2 °C 3,3 °C 87 % 1030,1 hPa 0,0 mm - 0,0 km/h 0,0 km/h SW 0,0 W/qm 0,0 nein 02:55
03:00-5,9 °C 2,2 °C 3,3 °C 87 % 1030,1 hPa 0,0 mm - 1,4 km/h 4,7 km/h SW 0,0 W/qm 0,0 nein 03:00
03:05-5,9 °C 2,2 °C 3,3 °C 87 % 1030,1 hPa 0,0 mm 0,0 mm 1,4 km/h 4,7 km/h SW 0,0 W/qm 0,0 nein 03:05
03:10-6,0 °C 2,2 °C 3,3 °C 87 % 1030,1 hPa 0,0 mm 0,0 mm 0,0 km/h 4,7 km/h SW 0,0 W/qm 0,0 nein 03:10
03:15-6,1 °C 2,2 °C 3,3 °C 87 % 1030,2 hPa 0,0 mm - 0,0 km/h 3,2 km/h SW 0,0 W/qm 0,0 nein 03:15
03:20-6,0 °C 2,2 °C 3,3 °C 87 % 1030,2 hPa 0,0 mm - 0,0 km/h 1,4 km/h SW 0,0 W/qm 0,0 nein 03:20
03:25-6,0 °C 2,2 °C 3,3 °C 87 % 1030,1 hPa 0,0 mm - 0,0 km/h 0,0 km/h SW 0,0 W/qm 0,0 nein 03:25
03:30-6,0 °C 2,2 °C 3,3 °C 87 % 1030,1 hPa 0,0 mm - 0,0 km/h 0,0 km/h SW 0,0 W/qm 0,0 nein 03:30
03:35-5,8 °C 2,2 °C 3,3 °C 88 % 1030,1 hPa 0,0 mm - 0,0 km/h 0,0 km/h SW 0,0 W/qm 0,0 nein 03:35
03:40-5,7 °C 2,2 °C 3,3 °C 88 % 1030,1 hPa 0,0 mm - 0,0 km/h 0,0 km/h SW 0,0 W/qm 0,0 nein 03:40
03:45-5,6 °C 2,2 °C 3,3 °C 88 % 1030,0 hPa 0,0 mm - 0,0 km/h 0,0 km/h SW 0,0 W/qm 0,0 nein 03:45
03:50-5,7 °C 2,2 °C 3,3 °C 88 % 1030,0 hPa 0,0 mm - 0,0 km/h 0,0 km/h SW 0,0 W/qm 0,0 nein 03:50
03:55-5,8 °C 2,2 °C 3,3 °C 88 % 1029,9 hPa 0,0 mm - 0,0 km/h 0,0 km/h SW 0,0 W/qm 0,0 nein 03:55
UhrzeitTemperaturBoden 10cmBoden 20cmFeuchteLuftdruckNiederschlagEvapotranspirationWindWindböenWindrichtungSolarstrahlungUV-IndexSonne?Uhrzeit
04:00-5,7 °C 2,2 °C 3,3 °C 88 % 1029,9 hPa 0,0 mm - 0,0 km/h 0,0 km/h SW 0,0 W/qm 0,0 nein 04:00
04:05-5,7 °C 2,2 °C 3,3 °C 88 % 1030,0 hPa 0,0 mm 0,0 mm 0,0 km/h 0,0 km/h SW 0,0 W/qm 0,0 nein 04:05
04:10-5,6 °C 2,2 °C 3,3 °C 88 % 1030,0 hPa 0,0 mm 0,0 mm 0,0 km/h 0,0 km/h SW 0,0 W/qm 0,0 nein 04:10
04:15-5,6 °C 2,2 °C 3,3 °C 88 % 1030,0 hPa 0,0 mm - 0,0 km/h 0,0 km/h SW 0,0 W/qm 0,0 nein 04:15
04:20-5,7 °C 2,2 °C 3,3 °C 88 % 1029,9 hPa 0,0 mm - 0,0 km/h 0,0 km/h SW 0,0 W/qm 0,0 nein 04:20
04:25-5,7 °C 2,2 °C 3,3 °C 88 % 1029,9 hPa 0,0 mm - 0,0 km/h 0,0 km/h SW 0,0 W/qm 0,0 nein 04:25
04:30-5,7 °C 2,2 °C 3,3 °C 88 % 1029,9 hPa 0,0 mm - 0,0 km/h 0,0 km/h SW 0,0 W/qm 0,0 nein 04:30
04:35-5,7 °C 2,2 °C 3,3 °C 88 % 1029,8 hPa 0,0 mm - 0,0 km/h 0,0 km/h SW 0,0 W/qm 0,0 nein 04:35
04:40-5,8 °C 2,2 °C 3,3 °C 88 % 1029,7 hPa 0,0 mm - 0,0 km/h 0,0 km/h SW 0,0 W/qm 0,0 nein 04:40
04:45-5,8 °C 2,2 °C 3,3 °C 88 % 1029,7 hPa 0,0 mm - 0,0 km/h 1,4 km/h SW 0,0 W/qm 0,0 nein 04:45
04:50-5,9 °C 2,2 °C 3,3 °C 88 % 1029,7 hPa 0,0 mm - 0,0 km/h 1,4 km/h SW 0,0 W/qm 0,0 nein 04:50
04:55-6,0 °C 2,2 °C 3,3 °C 88 % 1029,6 hPa 0,0 mm - 0,0 km/h 1,4 km/h SW 0,0 W/qm 0,0 nein 04:55
05:00-6,0 °C 2,2 °C 3,3 °C 88 % 1029,6 hPa 0,0 mm - 0,0 km/h 1,4 km/h SW 0,0 W/qm 0,0 nein 05:00
05:05-5,9 °C 2,2 °C 3,3 °C 88 % 1029,5 hPa 0,0 mm 0,0 mm 0,0 km/h 0,0 km/h SW 0,0 W/qm 0,0 nein 05:05
05:10-5,8 °C 2,2 °C 3,3 °C 89 % 1029,4 hPa 0,0 mm 0,0 mm 0,0 km/h 0,0 km/h SW 0,0 W/qm 0,0 nein 05:10
05:15-5,9 °C 2,2 °C 3,3 °C 88 % 1029,3 hPa 0,0 mm - 0,0 km/h 0,0 km/h SW 0,0 W/qm 0,0 nein 05:15
05:20-5,9 °C 2,2 °C 3,3 °C 88 % 1029,2 hPa 0,0 mm - 0,0 km/h 0,0 km/h SW 0,0 W/qm 0,0 nein 05:20
05:25-5,9 °C 2,2 °C 3,3 °C 89 % 1029,1 hPa 0,0 mm - 0,0 km/h 0,0 km/h SW 0,0 W/qm 0,0 nein 05:25
05:30-5,9 °C 2,2 °C 3,3 °C 89 % 1028,9 hPa 0,0 mm - 0,0 km/h 0,0 km/h SW 0,0 W/qm 0,0 nein 05:30
05:35-5,8 °C 2,2 °C 3,3 °C 89 % 1028,9 hPa 0,0 mm - 0,0 km/h 0,0 km/h SW 0,0 W/qm 0,0 nein 05:35
05:40-5,6 °C 2,2 °C 3,3 °C 89 % 1028,7 hPa 0,0 mm - 0,0 km/h 0,0 km/h SW 0,0 W/qm 0,0 nein 05:40
05:45-5,5 °C 2,2 °C 3,3 °C 89 % 1028,7 hPa 0,0 mm - 0,0 km/h 0,0 km/h SW 0,0 W/qm 0,0 nein 05:45
05:50-5,4 °C 2,2 °C 3,3 °C 89 % 1028,8 hPa 0,0 mm - 0,0 km/h 0,0 km/h SW 0,0 W/qm 0,0 nein 05:50
05:55-5,3 °C 2,2 °C 3,3 °C 89 % 1028,9 hPa 0,0 mm - 0,0 km/h 0,0 km/h SW 0,0 W/qm 0,0 nein 05:55
UhrzeitTemperaturBoden 10cmBoden 20cmFeuchteLuftdruckNiederschlagEvapotranspirationWindWindböenWindrichtungSolarstrahlungUV-IndexSonne?Uhrzeit
06:00-5,2 °C 2,2 °C 3,3 °C 89 % 1028,8 hPa 0,0 mm - 0,0 km/h 3,2 km/h SW 0,0 W/qm 0,0 nein 06:00
06:05-5,1 °C 2,2 °C 3,3 °C 89 % 1028,7 hPa 0,0 mm 0,0 mm 0,0 km/h 3,2 km/h SW 0,0 W/qm 0,0 nein 06:05
06:10-5,0 °C 2,2 °C 3,3 °C 89 % 1028,7 hPa 0,0 mm 0,0 mm 0,0 km/h 3,2 km/h SW 0,0 W/qm 0,0 nein 06:10
06:15-5,1 °C 2,2 °C 3,3 °C 89 % 1028,8 hPa 0,0 mm - 0,0 km/h 0,0 km/h SW 0,0 W/qm 0,0 nein 06:15
06:20-5,1 °C 2,2 °C 3,3 °C 89 % 1028,8 hPa 0,0 mm - 0,0 km/h 0,0 km/h SW 0,0 W/qm 0,0 nein 06:20
06:25-5,1 °C 2,2 °C 3,3 °C 88 % 1028,6 hPa 0,0 mm - 0,0 km/h 1,4 km/h SW 0,0 W/qm 0,0 nein 06:25
06:30-5,0 °C 2,2 °C 3,3 °C 88 % 1028,6 hPa 0,0 mm - 0,0 km/h 1,4 km/h SW 0,0 W/qm 0,0 nein 06:30
06:35-5,0 °C 2,2 °C 3,3 °C 88 % 1028,7 hPa 0,0 mm - 0,0 km/h 1,4 km/h SW 0,0 W/qm 0,0 nein 06:35
06:40-5,0 °C 2,2 °C 3,3 °C 88 % 1028,6 hPa 0,0 mm - 0,0 km/h 0,0 km/h SW 0,0 W/qm 0,0 nein 06:40
06:45-5,0 °C 2,2 °C 3,3 °C 88 % 1028,7 hPa 0,0 mm - 0,0 km/h 0,0 km/h SW 0,0 W/qm 0,0 nein 06:45
06:50-5,0 °C 2,2 °C 3,3 °C 88 % 1028,7 hPa 0,0 mm - 0,0 km/h 0,0 km/h SW 0,0 W/qm 0,0 nein 06:50
06:55-4,9 °C 2,2 °C 3,3 °C 88 % 1028,7 hPa 0,0 mm - 0,0 km/h 0,0 km/h SW 5,0 W/qm 0,0 nein 06:55
07:00-4,9 °C 1,7 °C 3,3 °C 88 % 1028,7 hPa 0,0 mm - 0,0 km/h 0,0 km/h SW 5,0 W/qm 0,0 nein 07:00
07:05-5,0 °C 1,7 °C 3,3 °C 89 % 1028,8 hPa 0,0 mm 0,0 mm 0,0 km/h 0,0 km/h SW 7,0 W/qm 0,0 nein 07:05
07:10-4,9 °C 1,7 °C 3,3 °C 88 % 1028,8 hPa 0,0 mm 0,0 mm 0,0 km/h 0,0 km/h SW 9,0 W/qm 0,0 nein 07:10
07:15-4,9 °C 1,7 °C 3,3 °C 88 % 1028,8 hPa 0,0 mm - 0,0 km/h 0,0 km/h SW 12,0 W/qm 0,0 nein 07:15
07:20-4,8 °C 1,7 °C 3,3 °C 89 % 1028,8 hPa 0,0 mm - 0,0 km/h 0,0 km/h SW 14,0 W/qm 0,0 nein 07:20
07:25-4,7 °C 1,7 °C 3,3 °C 89 % 1028,8 hPa 0,0 mm - 0,0 km/h 0,0 km/h SW 16,0 W/qm 0,0 nein 07:25
07:30-4,7 °C 1,7 °C 3,3 °C 89 % 1028,7 hPa 0,0 mm - 0,0 km/h 0,0 km/h SW 18,0 W/qm 0,0 nein 07:30
07:35-4,7 °C 1,7 °C 3,3 °C 89 % 1028,7 hPa 0,0 mm - 0,0 km/h 0,0 km/h SW 19,0 W/qm 0,0 nein 07:35
07:40-4,6 °C 1,7 °C 3,3 °C 89 % 1028,6 hPa 0,0 mm - 0,0 km/h 0,0 km/h SW 23,0 W/qm 0,0 nein 07:40
07:45-4,5 °C 1,7 °C 3,3 °C 89 % 1028,5 hPa 0,0 mm - 0,0 km/h 0,0 km/h SW 30,0 W/qm 0,0 nein 07:45
07:50-4,4 °C 1,7 °C 3,3 °C 88 % 1028,6 hPa 0,0 mm - 0,0 km/h 0,0 km/h SW 39,0 W/qm 0,0 nein 07:50
07:55-4,3 °C 1,7 °C 3,3 °C 88 % 1028,6 hPa 0,0 mm - 0,0 km/h 0,0 km/h SW 42,0 W/qm 0,0 nein 07:55
UhrzeitTemperaturBoden 10cmBoden 20cmFeuchteLuftdruckNiederschlagEvapotranspirationWindWindböenWindrichtungSolarstrahlungUV-IndexSonne?Uhrzeit
08:00-4,2 °C 1,7 °C 3,3 °C 88 % 1028,6 hPa 0,0 mm - 0,0 km/h 0,0 km/h SW 51,0 W/qm 0,0 nein 08:00
08:05-4,2 °C 1,7 °C 3,3 °C 88 % 1028,7 hPa 0,0 mm 0,0 mm 0,0 km/h 0,0 km/h SW 60,0 W/qm 0,0 nein 08:05
08:10-4,2 °C 1,7 °C 3,3 °C 87 % 1028,6 hPa 0,0 mm 0,0 mm 0,0 km/h 0,0 km/h SW 69,0 W/qm 0,0 nein 08:10
08:15-4,2 °C 1,7 °C 3,3 °C 87 % 1028,6 hPa 0,0 mm - 0,0 km/h 0,0 km/h SW 76,0 W/qm 0,0 nein 08:15
08:20-4,1 °C 1,7 °C 2,8 °C 87 % 1028,6 hPa 0,0 mm - 0,0 km/h 0,0 km/h SW 74,0 W/qm 0,0 nein 08:20
08:25-3,9 °C 1,7 °C 2,8 °C 87 % 1028,5 hPa 0,0 mm - 0,0 km/h 0,0 km/h SW 76,0 W/qm 0,0 nein 08:25
08:30-3,7 °C 1,7 °C 2,8 °C 87 % 1028,4 hPa 0,0 mm - 0,0 km/h 0,0 km/h SW 81,0 W/qm 0,0 nein 08:30
08:35-3,4 °C 1,7 °C 2,8 °C 87 % 1028,4 hPa 0,0 mm - 0,0 km/h 0,0 km/h SW 98,0 W/qm 0,0 nein 08:35
08:40-3,3 °C 1,7 °C 2,8 °C 86 % 1028,4 hPa 0,0 mm - 0,0 km/h 0,0 km/h SW 118,0 W/qm 0,0 nein 08:40
08:45-3,1 °C 1,7 °C 2,8 °C 86 % 1028,3 hPa 0,0 mm - 0,0 km/h 0,0 km/h SW 130,0 W/qm 0,0 nein 08:45
08:50-2,9 °C 1,7 °C 2,8 °C 85 % 1028,4 hPa 0,0 mm - 0,0 km/h 0,0 km/h SW 137,0 W/qm 0,0 nein 08:50
08:55-2,7 °C 1,7 °C 2,8 °C 85 % 1028,4 hPa 0,0 mm - 0,0 km/h 0,0 km/h SW 141,0 W/qm 0,0 nein 08:55
09:00-2,4 °C 1,7 °C 2,8 °C 85 % 1028,3 hPa 0,0 mm - 0,0 km/h 0,0 km/h SW 144,0 W/qm 0,0 nein 09:00
09:05-2,2 °C 1,7 °C 2,8 °C 84 % 1028,2 hPa 0,0 mm 0,0 mm 0,0 km/h 0,0 km/h SW 171,0 W/qm 0,0 nein 09:05
09:10-1,8 °C 1,7 °C 2,8 °C 83 % 1028,1 hPa 0,0 mm 0,0 mm 0,0 km/h 0,0 km/h SW 190,0 W/qm 0,5 nein 09:10
09:15-1,6 °C 1,7 °C 2,8 °C 81 % 1028,2 hPa 0,0 mm - 0,0 km/h 0,0 km/h SW 220,0 W/qm 0,5 ja 09:15
09:20-1,3 °C 1,7 °C 2,8 °C 79 % 1028,1 hPa 0,0 mm - 0,0 km/h 0,0 km/h SW 199,0 W/qm 0,5 ja 09:20
09:25-1,2 °C 1,7 °C 2,8 °C 78 % 1028,0 hPa 0,0 mm - 0,0 km/h 0,0 km/h SW 232,0 W/qm 0,5 ja 09:25
09:30-0,8 °C 1,7 °C 2,8 °C 77 % 1027,9 hPa 0,0 mm - 0,0 km/h 0,0 km/h SW 207,0 W/qm 0,5 ja 09:30
09:35-0,6 °C 1,7 °C 2,8 °C 76 % 1027,7 hPa 0,0 mm - 0,0 km/h 0,0 km/h SW 171,0 W/qm 0,5 nein 09:35
09:40-0,4 °C 1,7 °C 2,8 °C 75 % 1027,7 hPa 0,0 mm - 0,0 km/h 0,0 km/h SW 169,0 W/qm 0,5 nein 09:40
09:45-0,2 °C 1,7 °C 2,8 °C 74 % 1027,6 hPa 0,0 mm - 0,0 km/h 0,0 km/h SSO 186,0 W/qm 0,5 nein 09:45
09:50-0,1 °C 1,7 °C 2,8 °C 73 % 1027,5 hPa 0,0 mm - 0,0 km/h 4,7 km/h SO 202,0 W/qm 0,6 ja 09:50
09:550,1 °C 1,7 °C 2,8 °C 72 % 1027,5 hPa 0,0 mm - 0,0 km/h 4,7 km/h O 213,0 W/qm 0,6 ja 09:55
UhrzeitTemperaturBoden 10cmBoden 20cmFeuchteLuftdruckNiederschlagEvapotranspirationWindWindböenWindrichtungSolarstrahlungUV-IndexSonne?Uhrzeit
10:000,2 °C 1,7 °C 2,8 °C 71 % 1027,5 hPa 0,0 mm - 0,0 km/h 4,7 km/h OSO 229,0 W/qm 0,7 ja 10:00
10:050,3 °C 1,7 °C 2,8 °C 72 % 1027,4 hPa 0,0 mm 0,1 mm 0,0 km/h 4,7 km/h OSO 258,0 W/qm 0,7 ja 10:05
10:100,4 °C 1,7 °C 2,8 °C 71 % 1027,3 hPa 0,0 mm 0,1 mm 1,4 km/h 3,2 km/h NO 271,0 W/qm 0,7 ja 10:10
10:150,8 °C 1,7 °C 2,8 °C 73 % 1027,2 hPa 0,0 mm - 1,4 km/h 7,9 km/h NO 223,0 W/qm 0,7 ja 10:15
10:200,9 °C 1,7 °C 2,8 °C 71 % 1027,3 hPa 0,0 mm - 1,4 km/h 7,9 km/h N 214,0 W/qm 0,7 ja 10:20
10:250,9 °C 1,7 °C 2,8 °C 70 % 1027,2 hPa 0,0 mm - 1,4 km/h 7,9 km/h ONO 207,0 W/qm 0,7 ja 10:25
10:301,0 °C 1,7 °C 2,8 °C 69 % 1027,3 hPa 0,0 mm - 1,4 km/h 4,7 km/h O 221,0 W/qm 0,8 ja 10:30
10:351,1 °C 1,7 °C 2,8 °C 67 % 1027,4 hPa 0,0 mm - 0,0 km/h 4,7 km/h OSO 346,0 W/qm 1,0 ja 10:35
10:401,5 °C 1,7 °C 2,8 °C 67 % 1027,2 hPa 0,0 mm - 0,0 km/h 4,7 km/h SO 343,0 W/qm 1,0 ja 10:40
10:451,8 °C 1,7 °C 2,8 °C 65 % 1027,2 hPa 0,0 mm - 0,0 km/h 4,7 km/h SO 313,0 W/qm 1,0 ja 10:45
10:502,1 °C 1,7 °C 2,8 °C 67 % 1027,1 hPa 0,0 mm - 1,4 km/h 3,2 km/h SO 295,0 W/qm 0,9 ja 10:50
10:552,1 °C 1,7 °C 2,8 °C 64 % 1027,0 hPa 0,0 mm - 1,4 km/h 7,9 km/h SSW 274,0 W/qm 0,9 ja 10:55
11:002,2 °C 1,7 °C 2,8 °C 64 % 1027,0 hPa 0,0 mm - 1,4 km/h 7,9 km/h SO 295,0 W/qm 0,9 ja 11:00
11:051,9 °C 1,7 °C 2,8 °C 65 % 1027,0 hPa 0,0 mm 0,2 mm 1,4 km/h 6,5 km/h NNO 288,0 W/qm 0,9 ja 11:05
11:102,3 °C 1,7 °C 2,8 °C 67 % 1026,9 hPa 0,0 mm 0,2 mm 0,0 km/h 7,9 km/h NNO 260,0 W/qm 0,9 ja 11:10
11:152,3 °C 1,7 °C 2,8 °C 63 % 1027,0 hPa 0,0 mm - 0,0 km/h 7,9 km/h SSO 244,0 W/qm 0,8 ja 11:15
11:202,5 °C 2,2 °C 2,8 °C 64 % 1026,9 hPa 0,0 mm - 1,4 km/h 7,9 km/h S 239,0 W/qm 0,8 ja 11:20
11:252,6 °C 2,2 °C 2,8 °C 63 % 1026,9 hPa 0,0 mm - 1,4 km/h 6,5 km/h S 250,0 W/qm 0,9 ja 11:25
11:302,6 °C 2,2 °C 2,8 °C 61 % 1026,9 hPa 0,0 mm - 1,4 km/h 6,5 km/h SO 272,0 W/qm 1,0 ja 11:30
11:352,6 °C 2,2 °C 2,8 °C 62 % 1026,8 hPa 0,0 mm - 0,0 km/h 6,5 km/h S 311,0 W/qm 1,1 ja 11:35
11:402,6 °C 2,2 °C 2,8 °C 62 % 1026,8 hPa 0,0 mm - 1,4 km/h 3,2 km/h OSO 371,0 W/qm 1,1 ja 11:40
11:452,7 °C 2,2 °C 2,8 °C 60 % 1026,8 hPa 0,0 mm - 1,4 km/h 4,7 km/h NNO 345,0 W/qm 1,2 ja 11:45
11:502,8 °C 2,2 °C 2,8 °C 61 % 1026,7 hPa 0,0 mm - 1,4 km/h 9,7 km/h NO 330,0 W/qm 1,1 ja 11:50
11:553,1 °C 2,2 °C 2,8 °C 61 % 1026,5 hPa 0,0 mm - 1,4 km/h 9,7 km/h SSO 318,0 W/qm 1,1 ja 11:55
UhrzeitTemperaturBoden 10cmBoden 20cmFeuchteLuftdruckNiederschlagEvapotranspirationWindWindböenWindrichtungSolarstrahlungUV-IndexSonne?Uhrzeit
12:003,1 °C 2,2 °C 2,8 °C 59 % 1026,6 hPa 0,0 mm - 1,4 km/h 6,5 km/h O 322,0 W/qm 1,1 ja 12:00
12:053,0 °C 2,2 °C 2,8 °C 60 % 1026,6 hPa 0,0 mm 0,3 mm 3,2 km/h 7,9 km/h OSO 290,0 W/qm 1,0 ja 12:05
12:103,1 °C 2,2 °C 2,8 °C 60 % 1026,4 hPa 0,0 mm 0,3 mm 3,2 km/h 7,9 km/h SO 269,0 W/qm 0,9 ja 12:10
12:153,2 °C 2,2 °C 2,8 °C 58 % 1026,3 hPa 0,0 mm - 1,4 km/h 7,9 km/h ONO 262,0 W/qm 0,9 ja 12:15
12:203,1 °C 2,2 °C 2,8 °C 58 % 1026,3 hPa 0,0 mm - 3,2 km/h 7,9 km/h SSO 262,0 W/qm 0,9 ja 12:20
12:253,2 °C 2,2 °C 2,8 °C 58 % 1026,2 hPa 0,0 mm - 3,2 km/h 7,9 km/h ONO 274,0 W/qm 1,0 ja 12:25
12:303,3 °C 2,2 °C 2,8 °C 57 % 1026,1 hPa 0,0 mm - 3,2 km/h 7,9 km/h O 279,0 W/qm 1,0 ja 12:30
12:353,5 °C 2,2 °C 2,8 °C 59 % 1026,1 hPa 0,0 mm - 1,4 km/h 7,9 km/h SO 271,0 W/qm 0,9 ja 12:35
12:403,7 °C 2,2 °C 2,8 °C 59 % 1026,0 hPa 0,0 mm - 1,4 km/h 9,7 km/h SSO 253,0 W/qm 0,9 ja 12:40
12:453,6 °C 2,2 °C 2,8 °C 58 % 1025,9 hPa 0,0 mm - 0,0 km/h 9,7 km/h O 225,0 W/qm 0,8 ja 12:45
12:503,7 °C 2,2 °C 2,8 °C 57 % 1025,7 hPa 0,0 mm - 1,4 km/h 3,2 km/h S 209,0 W/qm 0,8 ja 12:50
12:553,8 °C 2,2 °C 2,8 °C 56 % 1025,6 hPa 0,0 mm - 1,4 km/h 4,7 km/h SO 218,0 W/qm 0,8 ja 12:55
13:003,6 °C 2,2 °C 2,8 °C 56 % 1025,6 hPa 0,0 mm - 1,4 km/h 6,5 km/h SO 229,0 W/qm 0,8 ja 13:00
13:053,7 °C 2,2 °C 2,8 °C 56 % 1025,5 hPa 0,0 mm 0,4 mm 1,4 km/h 6,5 km/h SO 227,0 W/qm 0,8 ja 13:05
13:103,8 °C 2,2 °C 2,8 °C 56 % 1025,5 hPa 0,0 mm 0,4 mm 1,4 km/h 6,5 km/h S 241,0 W/qm 0,9 ja 13:10
13:153,9 °C 2,2 °C 2,8 °C 56 % 1025,5 hPa 0,0 mm - 1,4 km/h 6,5 km/h O 248,0 W/qm 0,9 ja 13:15
13:204,1 °C 2,2 °C 2,8 °C 57 % 1025,5 hPa 0,0 mm - 1,4 km/h 6,5 km/h SSO 258,0 W/qm 0,9 ja 13:20
13:254,3 °C 2,2 °C 2,8 °C 54 % 1025,4 hPa 0,0 mm - 1,4 km/h 7,9 km/h SW 269,0 W/qm 0,9 ja 13:25
13:304,2 °C 2,2 °C 2,8 °C 56 % 1025,3 hPa 0,0 mm - 1,4 km/h 7,9 km/h S 267,0 W/qm 0,9 ja 13:30
13:354,2 °C 2,2 °C 2,8 °C 58 % 1025,2 hPa 0,0 mm - 1,4 km/h 6,5 km/h NO 221,0 W/qm 0,7 ja 13:35
13:404,1 °C 2,2 °C 2,8 °C 57 % 1025,3 hPa 0,0 mm - 1,4 km/h 6,5 km/h ONO 156,0 W/qm 0,5 nein 13:40
13:454,0 °C 2,2 °C 2,8 °C 55 % 1025,3 hPa 0,0 mm - 1,4 km/h 4,7 km/h ONO 132,0 W/qm 0,5 nein 13:45
13:504,0 °C 2,2 °C 2,8 °C 56 % 1025,2 hPa 0,0 mm - 1,4 km/h 4,7 km/h ONO 141,0 W/qm 0,5 nein 13:50
13:554,2 °C 2,2 °C 2,8 °C 57 % 1025,1 hPa 0,0 mm - 0,0 km/h 4,7 km/h SO 155,0 W/qm 0,5 nein 13:55
UhrzeitTemperaturBoden 10cmBoden 20cmFeuchteLuftdruckNiederschlagEvapotranspirationWindWindböenWindrichtungSolarstrahlungUV-IndexSonne?Uhrzeit
14:004,4 °C 2,8 °C 2,8 °C 56 % 1025,1 hPa 0,0 mm - 0,0 km/h 4,7 km/h SO 178,0 W/qm 0,6 nein 14:00
14:054,4 °C 2,8 °C 2,8 °C 56 % 1025,0 hPa 0,0 mm 0,5 mm 0,0 km/h 3,2 km/h SO 207,0 W/qm 0,7 ja 14:05
14:104,6 °C 2,8 °C 2,8 °C 54 % 1024,9 hPa 0,0 mm 0,5 mm 0,0 km/h 3,2 km/h SSW 237,0 W/qm 0,8 ja 14:10
14:154,7 °C 2,8 °C 2,8 °C 53 % 1024,9 hPa 0,0 mm - 1,4 km/h 4,7 km/h SSW 255,0 W/qm 0,9 ja 14:15
14:204,9 °C 2,8 °C 2,8 °C 53 % 1024,7 hPa 0,0 mm - 1,4 km/h 4,7 km/h SSW 229,0 W/qm 0,8 ja 14:20
14:255,0 °C 2,8 °C 2,8 °C 53 % 1024,7 hPa 0,0 mm - 1,4 km/h 4,7 km/h SSW 244,0 W/qm 0,8 ja 14:25
14:304,9 °C 2,8 °C 3,3 °C 53 % 1024,7 hPa 0,0 mm - 0,0 km/h 4,7 km/h SSW 371,0 W/qm 1,0 ja 14:30
14:355,3 °C 2,8 °C 3,3 °C 53 % 1024,6 hPa 0,0 mm - 0,0 km/h 4,7 km/h S 294,0 W/qm 0,9 ja 14:35
14:405,3 °C 2,8 °C 3,3 °C 52 % 1024,6 hPa 0,0 mm - 0,0 km/h 3,2 km/h NO 279,0 W/qm 0,8 ja 14:40
14:455,5 °C 2,8 °C 3,3 °C 52 % 1024,5 hPa 0,0 mm - 0,0 km/h 3,2 km/h NO 367,0 W/qm 0,9 ja 14:45
14:505,6 °C 2,8 °C 3,3 °C 51 % 1024,4 hPa 0,0 mm - 0,0 km/h 3,2 km/h SSO 309,0 W/qm 0,8 ja 14:50
14:555,8 °C 2,8 °C 3,3 °C 49 % 1024,4 hPa 0,0 mm - 1,4 km/h 3,2 km/h SSO 237,0 W/qm 0,8 ja 14:55
15:005,7 °C 2,8 °C 3,3 °C 50 % 1024,3 hPa 0,0 mm - 1,4 km/h 7,9 km/h S 211,0 W/qm 0,7 ja 15:00
15:055,8 °C 2,8 °C 3,3 °C 48 % 1024,3 hPa 0,0 mm 0,6 mm 1,4 km/h 7,9 km/h S 204,0 W/qm 0,6 ja 15:05
15:105,7 °C 2,8 °C 3,3 °C 48 % 1024,2 hPa 0,0 mm 0,6 mm 1,4 km/h 7,9 km/h S 197,0 W/qm 0,6 nein 15:10
15:155,8 °C 2,8 °C 3,3 °C 47 % 1024,1 hPa 0,0 mm - 1,4 km/h 7,9 km/h S 206,0 W/qm 0,6 ja 15:15
15:205,7 °C 2,8 °C 3,3 °C 48 % 1024,1 hPa 0,0 mm - 3,2 km/h 7,9 km/h SO 190,0 W/qm 0,6 nein 15:20
15:255,7 °C 2,8 °C 3,3 °C 48 % 1024,1 hPa 0,0 mm - 1,4 km/h 6,5 km/h OSO 179,0 W/qm 0,5 nein 15:25
15:305,7 °C 2,8 °C 3,3 °C 48 % 1024,0 hPa 0,0 mm - 0,0 km/h 6,5 km/h SSO 179,0 W/qm 0,5 nein 15:30
15:355,7 °C 2,8 °C 3,3 °C 48 % 1024,0 hPa 0,0 mm - 0,0 km/h 6,5 km/h SO 195,0 W/qm 0,5 nein 15:35
15:405,6 °C 2,8 °C 3,3 °C 48 % 1024,0 hPa 0,0 mm - 0,0 km/h 6,5 km/h SSO 188,0 W/qm 0,5 nein 15:40
15:455,8 °C 2,8 °C 3,3 °C 47 % 1023,9 hPa 0,0 mm - 1,4 km/h 6,5 km/h S 230,0 W/qm 0,5 ja 15:45
15:505,9 °C 2,8 °C 3,3 °C 47 % 1024,0 hPa 0,0 mm - 1,4 km/h 6,5 km/h S 202,0 W/qm 0,5 ja 15:50
15:555,8 °C 2,8 °C 3,3 °C 51 % 1024,0 hPa 0,0 mm - 0,0 km/h 4,7 km/h NO 264,0 W/qm 0,5 ja 15:55
UhrzeitTemperaturBoden 10cmBoden 20cmFeuchteLuftdruckNiederschlagEvapotranspirationWindWindböenWindrichtungSolarstrahlungUV-IndexSonne?Uhrzeit
16:005,7 °C 2,8 °C 3,3 °C 46 % 1023,9 hPa 0,0 mm - 1,4 km/h 4,7 km/h OSO 265,0 W/qm 0,5 ja 16:00
16:056,0 °C 2,8 °C 3,3 °C 45 % 1023,8 hPa 0,0 mm 0,7 mm 1,4 km/h 4,7 km/h S 302,0 W/qm 0,0 ja 16:05
16:106,1 °C 2,8 °C 3,3 °C 44 % 1023,7 hPa 0,0 mm 0,7 mm 1,4 km/h 4,7 km/h O 142,0 W/qm 0,0 nein 16:10
16:155,7 °C 2,8 °C 3,3 °C 45 % 1023,8 hPa 0,0 mm - 3,2 km/h 7,9 km/h O 127,0 W/qm 0,0 nein 16:15
16:205,7 °C 2,8 °C 3,3 °C 45 % 1023,8 hPa 0,0 mm - 1,4 km/h 7,9 km/h OSO 114,0 W/qm 0,0 nein 16:20
16:255,7 °C 2,8 °C 3,3 °C 47 % 1023,8 hPa 0,0 mm - 0,0 km/h 7,9 km/h S 105,0 W/qm 0,0 nein 16:25
16:305,7 °C 2,8 °C 3,3 °C 45 % 1023,7 hPa 0,0 mm - 0,0 km/h 4,7 km/h S 104,0 W/qm 0,0 nein 16:30
16:355,6 °C 2,8 °C 3,3 °C 48 % 1023,7 hPa 0,0 mm - 0,0 km/h 4,7 km/h NNO 109,0 W/qm 0,0 nein 16:35
16:405,5 °C 2,8 °C 3,3 °C 47 % 1023,6 hPa 0,0 mm - 1,4 km/h 4,7 km/h NO 130,0 W/qm 0,0 nein 16:40
16:455,6 °C 3,3 °C 3,3 °C 50 % 1023,7 hPa 0,0 mm - 1,4 km/h 4,7 km/h NO 158,0 W/qm 0,0 nein 16:45
16:505,6 °C 3,3 °C 3,3 °C 47 % 1023,7 hPa 0,0 mm - 1,4 km/h 6,5 km/h NO 127,0 W/qm 0,0 nein 16:50
16:555,8 °C 3,3 °C 3,3 °C 45 % 1023,5 hPa 0,0 mm - 0,0 km/h 6,5 km/h NO 116,0 W/qm 0,0 nein 16:55
17:005,7 °C 3,3 °C 3,3 °C 47 % 1023,6 hPa 0,0 mm - 0,0 km/h 3,2 km/h NO 107,0 W/qm 0,0 nein 17:00
17:055,4 °C 3,3 °C 3,3 °C 52 % 1023,6 hPa 0,0 mm 0,8 mm 0,0 km/h 3,2 km/h NO 95,0 W/qm 0,0 nein 17:05
17:105,3 °C 3,3 °C 3,3 °C 49 % 1023,6 hPa 0,0 mm 0,8 mm 1,4 km/h 3,2 km/h NO 83,0 W/qm 0,0 nein 17:10
17:155,3 °C 3,3 °C 3,3 °C 48 % 1023,6 hPa 0,0 mm - 1,4 km/h 3,2 km/h NO 69,0 W/qm 0,0 nein 17:15
17:205,5 °C 3,3 °C 3,3 °C 47 % 1023,6 hPa 0,0 mm - 0,0 km/h 3,2 km/h ONO 54,0 W/qm 0,0 nein 17:20
17:255,5 °C 3,3 °C 3,3 °C 47 % 1023,7 hPa 0,0 mm - 0,0 km/h 3,2 km/h ONO 46,0 W/qm 0,0 nein 17:25
17:305,3 °C 3,3 °C 3,3 °C 47 % 1023,7 hPa 0,0 mm - 0,0 km/h 3,2 km/h ONO 39,0 W/qm 0,0 nein 17:30
17:354,8 °C 3,3 °C 3,3 °C 55 % 1023,7 hPa 0,0 mm - 0,0 km/h 3,2 km/h ONO 35,0 W/qm 0,0 nein 17:35
17:404,3 °C 3,3 °C 3,3 °C 54 % 1023,8 hPa 0,0 mm - 0,0 km/h 3,2 km/h ONO 28,0 W/qm 0,0 nein 17:40
17:454,0 °C 3,3 °C 3,3 °C 54 % 1023,8 hPa 0,0 mm - 0,0 km/h 3,2 km/h ONO 23,0 W/qm 0,0 nein 17:45
17:503,7 °C 3,3 °C 3,3 °C 55 % 1023,9 hPa 0,0 mm - 0,0 km/h 3,2 km/h ONO 16,0 W/qm 0,0 nein 17:50
17:553,3 °C 3,3 °C 3,3 °C 56 % 1023,9 hPa 0,0 mm - 0,0 km/h 0,0 km/h ONO 12,0 W/qm 0,0 nein 17:55
UhrzeitTemperaturBoden 10cmBoden 20cmFeuchteLuftdruckNiederschlagEvapotranspirationWindWindböenWindrichtungSolarstrahlungUV-IndexSonne?Uhrzeit
18:003,2 °C 3,3 °C 3,3 °C 54 % 1023,9 hPa 0,0 mm - 0,0 km/h 0,0 km/h ONO 7,0 W/qm 0,0 nein 18:00
18:052,8 °C 3,3 °C 3,3 °C 59 % 1024,0 hPa 0,0 mm 0,8 mm 0,0 km/h 0,0 km/h ONO 5,0 W/qm 0,0 nein 18:05
18:102,5 °C 3,3 °C 3,3 °C 58 % 1024,1 hPa 0,0 mm 0,8 mm 0,0 km/h 0,0 km/h ONO 0,0 W/qm 0,0 nein 18:10
18:152,0 °C 3,3 °C 3,3 °C 63 % 1024,2 hPa 0,0 mm - 0,0 km/h 0,0 km/h ONO 0,0 W/qm 0,0 nein 18:15
18:201,6 °C 3,3 °C 3,3 °C 64 % 1024,4 hPa 0,0 mm - 0,0 km/h 0,0 km/h ONO 0,0 W/qm 0,0 nein 18:20
18:251,3 °C 3,3 °C 3,3 °C 67 % 1024,4 hPa 0,0 mm - 0,0 km/h 0,0 km/h ONO 0,0 W/qm 0,0 nein 18:25
18:301,1 °C 3,3 °C 3,3 °C 67 % 1024,5 hPa 0,0 mm - 0,0 km/h 0,0 km/h ONO 0,0 W/qm 0,0 nein 18:30
18:351,0 °C 3,3 °C 3,3 °C 65 % 1024,6 hPa 0,0 mm - 0,0 km/h 0,0 km/h ONO 0,0 W/qm 0,0 nein 18:35
18:400,8 °C 3,3 °C 3,3 °C 66 % 1024,5 hPa 0,0 mm - 0,0 km/h 0,0 km/h ONO 0,0 W/qm 0,0 nein 18:40
18:450,4 °C 3,3 °C 3,3 °C 65 % 1024,6 hPa 0,0 mm - 0,0 km/h 0,0 km/h ONO 0,0 W/qm 0,0 nein 18:45
18:500,2 °C 3,3 °C 3,3 °C 67 % 1024,6 hPa 0,0 mm - 0,0 km/h 0,0 km/h ONO 0,0 W/qm 0,0 nein 18:50
18:55-0,1 °C 3,3 °C 3,3 °C 67 % 1024,5 hPa 0,0 mm - 0,0 km/h 0,0 km/h ONO 0,0 W/qm 0,0 nein 18:55
19:00-0,3 °C 3,3 °C 3,3 °C 71 % 1024,7 hPa 0,0 mm - 0,0 km/h 0,0 km/h ONO 0,0 W/qm 0,0 nein 19:00
19:05-0,5 °C 3,3 °C 3,3 °C 71 % 1024,6 hPa 0,0 mm 0,8 mm 0,0 km/h 0,0 km/h ONO 0,0 W/qm 0,0 nein 19:05
19:10-0,6 °C 3,3 °C 3,3 °C 71 % 1024,7 hPa 0,0 mm 0,8 mm 0,0 km/h 0,0 km/h ONO 0,0 W/qm 0,0 nein 19:10
19:15-0,8 °C 3,3 °C 3,3 °C 73 % 1024,7 hPa 0,0 mm - 0,0 km/h 0,0 km/h ONO 0,0 W/qm 0,0 nein 19:15
19:20-1,1 °C 3,3 °C 3,3 °C 73 % 1024,7 hPa 0,0 mm - 0,0 km/h 0,0 km/h ONO 0,0 W/qm 0,0 nein 19:20
19:25-1,2 °C 3,3 °C 3,3 °C 73 % 1024,6 hPa 0,0 mm - 0,0 km/h 0,0 km/h ONO 0,0 W/qm 0,0 nein 19:25
19:30-1,3 °C 3,3 °C 3,3 °C 75 % 1024,7 hPa 0,0 mm - 0,0 km/h 0,0 km/h ONO 0,0 W/qm 0,0 nein 19:30
19:35-1,5 °C 3,3 °C 3,3 °C 77 % 1024,7 hPa 0,0 mm - 0,0 km/h 0,0 km/h ONO 0,0 W/qm 0,0 nein 19:35
19:40-1,7 °C 3,3 °C 3,3 °C 75 % 1024,7 hPa 0,0 mm - 0,0 km/h 0,0 km/h ONO 0,0 W/qm 0,0 nein 19:40
19:45-1,9 °C 2,8 °C 3,3 °C 76 % 1024,8 hPa 0,0 mm - 0,0 km/h 0,0 km/h ONO 0,0 W/qm 0,0 nein 19:45
19:50-2,1 °C 2,8 °C 3,3 °C 77 % 1024,7 hPa 0,0 mm - 0,0 km/h 0,0 km/h ONO 0,0 W/qm 0,0 nein 19:50
19:55-2,1 °C 2,8 °C 3,3 °C 78 % 1024,7 hPa 0,0 mm - 0,0 km/h 0,0 km/h ONO 0,0 W/qm 0,0 nein 19:55
UhrzeitTemperaturBoden 10cmBoden 20cmFeuchteLuftdruckNiederschlagEvapotranspirationWindWindböenWindrichtungSolarstrahlungUV-IndexSonne?Uhrzeit
20:00-2,1 °C 2,8 °C 3,3 °C 76 % 1024,6 hPa 0,0 mm - 0,0 km/h 0,0 km/h ONO 0,0 W/qm 0,0 nein 20:00
20:05-2,2 °C 2,8 °C 3,3 °C 77 % 1024,6 hPa 0,0 mm 0,8 mm 0,0 km/h 0,0 km/h ONO 0,0 W/qm 0,0 nein 20:05
20:10-2,3 °C 2,8 °C 3,3 °C 77 % 1024,7 hPa 0,0 mm 0,8 mm 0,0 km/h 0,0 km/h ONO 0,0 W/qm 0,0 nein 20:10
20:15-2,3 °C 2,8 °C 3,3 °C 77 % 1024,7 hPa 0,0 mm - 0,0 km/h 0,0 km/h ONO 0,0 W/qm 0,0 nein 20:15
20:20-2,4 °C 2,8 °C 3,3 °C 78 % 1024,8 hPa 0,0 mm - 0,0 km/h 0,0 km/h ONO 0,0 W/qm 0,0 nein 20:20
20:25-2,4 °C 2,8 °C 3,3 °C 78 % 1024,7 hPa 0,0 mm - 0,0 km/h 0,0 km/h ONO 0,0 W/qm 0,0 nein 20:25
20:30-2,5 °C 2,8 °C 3,3 °C 78 % 1024,7 hPa 0,0 mm - 0,0 km/h 0,0 km/h ONO 0,0 W/qm 0,0 nein 20:30
20:35-2,5 °C 2,8 °C 3,3 °C 78 % 1024,7 hPa 0,0 mm - 0,0 km/h 0,0 km/h ONO 0,0 W/qm 0,0 nein 20:35
20:40-2,7 °C 2,8 °C 3,3 °C 78 % 1024,6 hPa 0,0 mm - 0,0 km/h 0,0 km/h ONO 0,0 W/qm 0,0 nein 20:40
20:45-2,7 °C 2,8 °C 3,3 °C 78 % 1024,7 hPa 0,0 mm - 0,0 km/h 0,0 km/h ONO 0,0 W/qm 0,0 nein 20:45
20:50-2,8 °C 2,8 °C 3,3 °C 79 % 1024,7 hPa 0,0 mm - 0,0 km/h 0,0 km/h ONO 0,0 W/qm 0,0 nein 20:50
20:55-2,9 °C 2,8 °C 3,3 °C 80 % 1024,8 hPa 0,0 mm - 0,0 km/h 0,0 km/h ONO 0,0 W/qm 0,0 nein 20:55
21:00-2,9 °C 2,8 °C 3,3 °C 79 % 1024,9 hPa 0,0 mm - 0,0 km/h 0,0 km/h ONO 0,0 W/qm 0,0 nein 21:00
21:05-3,1 °C 2,8 °C 3,3 °C 79 % 1024,9 hPa 0,0 mm 0,8 mm 0,0 km/h 0,0 km/h ONO 0,0 W/qm 0,0 nein 21:05
21:10-3,1 °C 2,8 °C 3,3 °C 80 % 1024,8 hPa 0,0 mm 0,8 mm 0,0 km/h 0,0 km/h ONO 0,0 W/qm 0,0 nein 21:10
21:15-3,1 °C 2,8 °C 3,3 °C 80 % 1024,8 hPa 0,0 mm - 0,0 km/h 0,0 km/h ONO 0,0 W/qm 0,0 nein 21:15
21:20-3,1 °C 2,8 °C 3,3 °C 80 % 1024,9 hPa 0,0 mm - 0,0 km/h 0,0 km/h ONO 0,0 W/qm 0,0 nein 21:20
21:25-3,2 °C 2,8 °C 3,3 °C 81 % 1024,9 hPa 0,0 mm - 0,0 km/h 0,0 km/h ONO 0,0 W/qm 0,0 nein 21:25
21:30-3,4 °C 2,8 °C 3,3 °C 81 % 1024,9 hPa 0,0 mm - 0,0 km/h 0,0 km/h ONO 0,0 W/qm 0,0 nein 21:30
21:35-3,5 °C 2,8 °C 3,3 °C 82 % 1024,9 hPa 0,0 mm - 0,0 km/h 0,0 km/h ONO 0,0 W/qm 0,0 nein 21:35
21:40-3,5 °C 2,8 °C 3,3 °C 82 % 1024,9 hPa 0,0 mm - 0,0 km/h 0,0 km/h ONO 0,0 W/qm 0,0 nein 21:40
21:45-3,4 °C 2,8 °C 3,3 °C 83 % 1024,9 hPa 0,0 mm - 0,0 km/h 0,0 km/h ONO 0,0 W/qm 0,0 nein 21:45
21:50-3,6 °C 2,8 °C 3,3 °C 84 % 1025,0 hPa 0,0 mm - 0,0 km/h 0,0 km/h ONO 0,0 W/qm 0,0 nein 21:50
21:55-3,7 °C 2,8 °C 3,3 °C 84 % 1025,0 hPa 0,0 mm - 0,0 km/h 0,0 km/h ONO 0,0 W/qm 0,0 nein 21:55
UhrzeitTemperaturBoden 10cmBoden 20cmFeuchteLuftdruckNiederschlagEvapotranspirationWindWindböenWindrichtungSolarstrahlungUV-IndexSonne?Uhrzeit
22:00-3,7 °C 2,8 °C 3,3 °C 84 % 1025,0 hPa 0,0 mm - 0,0 km/h 0,0 km/h ONO 0,0 W/qm 0,0 nein 22:00
22:05-3,7 °C 2,8 °C 3,3 °C 85 % 1025,0 hPa 0,0 mm 0,8 mm 0,0 km/h 0,0 km/h ONO 0,0 W/qm 0,0 nein 22:05
22:10-3,9 °C 2,8 °C 3,3 °C 84 % 1025,0 hPa 0,0 mm 0,8 mm 0,0 km/h 0,0 km/h ONO 0,0 W/qm 0,0 nein 22:10
22:15-4,0 °C 2,8 °C 3,3 °C 85 % 1025,0 hPa 0,0 mm - 0,0 km/h 0,0 km/h ONO 0,0 W/qm 0,0 nein 22:15
22:20-4,1 °C 2,8 °C 3,3 °C 85 % 1024,9 hPa 0,0 mm - 0,0 km/h 0,0 km/h ONO 0,0 W/qm 0,0 nein 22:20
22:25-4,1 °C 2,8 °C 3,3 °C 85 % 1024,9 hPa 0,0 mm - 0,0 km/h 0,0 km/h ONO 0,0 W/qm 0,0 nein 22:25
22:30-4,2 °C 2,8 °C 3,3 °C 85 % 1024,8 hPa 0,0 mm - 0,0 km/h 0,0 km/h ONO 0,0 W/qm 0,0 nein 22:30
22:35-4,3 °C 2,8 °C 3,3 °C 85 % 1024,9 hPa 0,0 mm - 0,0 km/h 0,0 km/h ONO 0,0 W/qm 0,0 nein 22:35
22:40-4,3 °C 2,8 °C 3,3 °C 86 % 1024,9 hPa 0,0 mm - 0,0 km/h 0,0 km/h ONO 0,0 W/qm 0,0 nein 22:40
22:45-4,2 °C 2,8 °C 3,3 °C 86 % 1024,7 hPa 0,0 mm - 0,0 km/h 0,0 km/h ONO 0,0 W/qm 0,0 nein 22:45
22:50-4,1 °C 2,8 °C 3,3 °C 86 % 1024,8 hPa 0,0 mm - 0,0 km/h 0,0 km/h ONO 0,0 W/qm 0,0 nein 22:50
22:55-4,2 °C 2,8 °C 3,3 °C 86 % 1024,8 hPa 0,0 mm - 0,0 km/h 0,0 km/h ONO 0,0 W/qm 0,0 nein 22:55
23:00-4,4 °C 2,8 °C 3,3 °C 86 % 1024,9 hPa 0,0 mm - 0,0 km/h 0,0 km/h ONO 0,0 W/qm 0,0 nein 23:00
23:05-4,4 °C 2,8 °C 3,3 °C 87 % 1025,0 hPa 0,0 mm 0,8 mm 0,0 km/h 0,0 km/h ONO 0,0 W/qm 0,0 nein 23:05
23:10-4,5 °C 2,8 °C 3,3 °C 87 % 1024,9 hPa 0,0 mm 0,8 mm 0,0 km/h 0,0 km/h ONO 0,0 W/qm 0,0 nein 23:10
23:15-4,7 °C 2,8 °C 3,3 °C 86 % 1024,9 hPa 0,0 mm - 0,0 km/h 0,0 km/h ONO 0,0 W/qm 0,0 nein 23:15
23:20-4,6 °C 2,8 °C 3,3 °C 87 % 1024,9 hPa 0,0 mm - 0,0 km/h 0,0 km/h ONO 0,0 W/qm 0,0 nein 23:20
23:25-4,7 °C 2,8 °C 3,3 °C 87 % 1024,7 hPa 0,0 mm - 0,0 km/h 0,0 km/h ONO 0,0 W/qm 0,0 nein 23:25
23:30-4,7 °C 2,2 °C 3,3 °C 87 % 1024,8 hPa 0,0 mm - 0,0 km/h 0,0 km/h ONO 0,0 W/qm 0,0 nein 23:30
23:35-4,7 °C 2,2 °C 3,3 °C 88 % 1024,8 hPa 0,0 mm - 0,0 km/h 0,0 km/h ONO 0,0 W/qm 0,0 nein 23:35
23:40-4,8 °C 2,2 °C 3,3 °C 88 % 1024,9 hPa 0,0 mm - 0,0 km/h 0,0 km/h ONO 0,0 W/qm 0,0 nein 23:40
23:45-4,8 °C 2,2 °C 3,3 °C 87 % 1024,7 hPa 0,0 mm - 0,0 km/h 0,0 km/h ONO 0,0 W/qm 0,0 nein 23:45
23:50-4,9 °C 2,2 °C 3,3 °C 88 % 1024,8 hPa 0,0 mm - 0,0 km/h 0,0 km/h ONO 0,0 W/qm 0,0 nein 23:50
23:55-4,9 °C 2,2 °C 3,3 °C 88 % 1024,8 hPa 0,0 mm - 0,0 km/h 0,0 km/h ONO 0,0 W/qm 0,0 nein 23:55
Gesamt: -1,3 °C 2,4 °C 3,2 °C 74 % 1026,9 hPa 0,0 mm 17,0 mm 0,3 km/h 2,1 km/h 0 83,7 W/qm 0,2 ja

Insgesamt 288 Zeilen mal 13 Spalten = 3744 Werte werden angezeigt.

www.wetter-rosstal.de   •   www.wetter-franken.de   •   www.lightningmaps.org   •   Start   •   Kontakt / Datenschutz   •   PC-Kümmerer